Terminal Aerodrome Forecast
Issued by NWS Charleston, SC

Home | Current Version | Previous Version | Text Only | Print | Product List | Glossary On
Versions: 1 2 3 4 5 6 7 8 9 10 11 12 13 14
000
FTUS42 KCHS 282300
TAFCHS
TAF
KCHS 282337Z 2900/2924 25010KT P6SM VCTS SCT035CB BKN150
     FM290200 26006KT P6SM SCT080
     FM290900 32005KT P6SM SKC
     FM291600 35005KT P6SM FEW050=

USA.gov is the U.S. government's official web portal to all federal, state and local government web resources and services.